Time,TemperatureF,DewpointF,PressureIn,WindDirection,WindDirectionDegrees,WindSpeedMPH,WindSpeedGustMPH,Humidity,HourlyPrecipIn,Conditions,Clouds,dailyrainin,SoftwareType,DateUTC
2013-02-01 00:05:00,30.4,11.0,29.45,South,189,3.0,3.0,44,0.00,,,0.00,vanprod,2013-02-01 05:05:00,
2013-02-01 00:15:00,30.3,11.0,29.47,WSW,251,5.0,5.0,45,0.00,,,0.00,vanprod,2013-02-01 05:15:00,
2013-02-01 00:25:00,30.4,10.0,29.47,WSW,243,5.0,5.0,43,0.00,,,0.00,vanprod,2013-02-01 05:25:00,
2013-02-01 00:35:00,30.1,12.0,29.46,WSW,257,4.0,6.0,46,0.00,,,0.00,vanprod,2013-02-01 05:35:00,
2013-02-01 00:45:00,30.0,13.0,29.46,SW,215,5.0,6.0,48,0.00,,,0.00,vanprod,2013-02-01 05:45:00,
2013-02-01 00:55:00,29.8,12.0,29.46,WNW,301,4.0,4.0,47,0.00,,,0.00,vanprod,2013-02-01 05:55:00,
2013-02-01 01:05:00,29.7,12.0,29.47,West,277,4.0,8.0,48,0.00,,,0.00,vanprod,2013-02-01 06:05:00,
2013-02-01 01:15:00,29.7,12.0,29.48,WSW,241,5.0,5.0,48,0.00,,,0.00,vanprod,2013-02-01 06:15:00,
2013-02-01 01:25:00,29.5,14.0,29.48,South,175,3.0,3.0,52,0.00,,,0.00,vanprod,2013-02-01 06:25:00,
2013-02-01 01:35:00,29.4,13.0,29.48,SW,215,3.0,3.0,49,0.00,,,0.00,vanprod,2013-02-01 06:35:00,
2013-02-01 01:45:00,29.4,13.0,29.49,South,191,4.0,4.0,50,0.00,,,0.00,vanprod,2013-02-01 06:45:00,
2013-02-01 01:55:00,29.3,12.0,29.49,WSW,256,4.0,4.0,49,0.00,,,0.00,vanprod,2013-02-01 06:55:00,
2013-02-01 02:05:00,29.3,13.0,29.49,WSW,240,4.0,4.0,50,0.00,,,0.00,vanprod,2013-02-01 07:05:00,
2013-02-01 02:15:00,29.1,12.0,29.50,WSW,237,4.0,4.0,48,0.00,,,0.00,vanprod,2013-02-01 07:15:00,
2013-02-01 02:25:00,29.0,12.0,29.50,SW,230,5.0,5.0,48,0.00,,,0.00,vanprod,2013-02-01 07:25:00,
2013-02-01 02:35:00,28.8,11.0,29.50,SW,223,5.0,5.0,48,0.00,,,0.00,vanprod,2013-02-01 07:35:00,
2013-02-01 02:45:00,28.8,11.0,29.51,SSW,213,5.0,5.0,47,0.00,,,0.00,vanprod,2013-02-01 07:45:00,
2013-02-01 02:55:00,28.7,12.0,29.51,South,178,4.0,5.0,50,0.00,,,0.00,vanprod,2013-02-01 07:55:00,
2013-02-01 03:05:00,28.5,12.0,29.51,South,189,5.0,5.0,49,0.00,,,0.00,vanprod,2013-02-01 08:05:00,
2013-02-01 03:15:00,28.4,12.0,29.52,SSW,213,4.0,5.0,49,0.00,,,0.00,vanprod,2013-02-01 08:15:00,
2013-02-01 03:25:00,28.2,12.0,29.52,South,181,3.0,3.0,50,0.00,,,0.00,vanprod,2013-02-01 08:25:00,
2013-02-01 03:35:00,28.2,11.0,29.52,SW,233,5.0,5.0,48,0.00,,,0.00,vanprod,2013-02-01 08:35:00,
2013-02-01 03:45:00,28.2,10.0,29.52,WSW,244,4.0,4.0,46,0.00,,,0.00,vanprod,2013-02-01 08:45:00,
2013-02-01 03:55:00,28.1,10.0,29.52,WSW,253,3.0,3.0,47,0.00,,,0.00,vanprod,2013-02-01 08:55:00,
2013-02-01 04:05:00,28.1,10.0,29.52,SW,224,3.0,5.0,47,0.00,,,0.00,vanprod,2013-02-01 09:05:00,
2013-02-01 04:15:00,28.1,10.0,29.53,SW,229,4.0,4.0,46,0.00,,,0.00,vanprod,2013-02-01 09:15:00,
2013-02-01 04:25:00,27.9,10.0,29.53,WSW,237,4.0,6.0,47,0.00,,,0.00,vanprod,2013-02-01 09:25:00,
2013-02-01 04:35:00,27.9,10.0,29.54,WSW,239,5.0,5.0,47,0.00,,,0.00,vanprod,2013-02-01 09:35:00,
2013-02-01 04:45:00,27.8,11.0,29.54,WSW,256,3.0,3.0,48,0.00,,,0.00,vanprod,2013-02-01 09:45:00,
2013-02-01 04:55:00,27.6,10.0,29.54,WSW,256,4.0,4.0,47,0.00,,,0.00,vanprod,2013-02-01 09:55:00,
2013-02-01 05:05:00,27.6,9.0,29.54,SW,215,3.0,3.0,46,0.00,,,0.00,vanprod,2013-02-01 10:05:00,
2013-02-01 05:15:00,27.5,10.0,29.54,SW,229,3.0,4.0,47,0.00,,,0.00,vanprod,2013-02-01 10:15:00,
2013-02-01 05:25:00,27.5,10.0,29.54,WNW,298,4.0,5.0,47,0.00,,,0.00,vanprod,2013-02-01 10:25:00,
2013-02-01 05:35:00,27.3,9.0,29.55,WSW,254,4.0,4.0,45,0.00,,,0.00,vanprod,2013-02-01 10:35:00,
2013-02-01 05:45:00,27.2,10.0,29.56,SW,223,3.0,3.0,47,0.00,,,0.00,vanprod,2013-02-01 10:45:00,
2013-02-01 05:55:00,27.0,9.0,29.56,WSW,241,2.0,2.0,47,0.00,,,0.00,vanprod,2013-02-01 10:55:00,
2013-02-01 06:05:00,26.7,10.0,29.56,SW,223,3.0,3.0,50,0.00,,,0.00,vanprod,2013-02-01 11:05:00,
2013-02-01 06:15:00,26.7,10.0,29.57,WSW,254,3.0,3.0,49,0.00,,,0.00,vanprod,2013-02-01 11:15:00,
2013-02-01 06:25:00,26.6,10.0,29.57,SW,222,2.0,2.0,50,0.00,,,0.00,vanprod,2013-02-01 11:25:00,
2013-02-01 06:35:00,26.4,11.0,29.57,SW,227,2.0,2.0,51,0.00,,,0.00,vanprod,2013-02-01 11:35:00,
2013-02-01 06:45:00,26.3,11.0,29.58,SW,226,2.0,3.0,52,0.00,,,0.00,vanprod,2013-02-01 11:45:00,
2013-02-01 06:55:00,26.1,11.0,29.58,SW,227,2.0,2.0,52,0.00,,,0.00,vanprod,2013-02-01 11:55:00,
2013-02-01 07:05:00,26.0,10.0,29.59,WSW,250,2.0,2.0,51,0.00,,,0.00,vanprod,2013-02-01 12:05:00,
2013-02-01 07:15:00,26.0,11.0,29.59,SW,217,2.0,2.0,52,0.00,,,0.00,vanprod,2013-02-01 12:15:00,
2013-02-01 07:25:00,26.0,9.0,29.59,SSW,212,4.0,4.0,49,0.00,,,0.00,vanprod,2013-02-01 12:25:00,
2013-02-01 07:35:00,26.3,10.0,29.60,SW,226,3.0,3.0,50,0.00,,,0.00,vanprod,2013-02-01 12:35:00,
2013-02-01 07:45:00,26.4,9.0,29.62,WSW,244,3.0,3.0,47,0.00,,,0.00,vanprod,2013-02-01 12:45:00,
2013-02-01 07:55:00,26.6,10.0,29.62,WSW,244,3.0,3.0,49,0.00,,,0.00,vanprod,2013-02-01 12:55:00,
2013-02-01 08:05:00,26.7,12.0,29.63,SW,229,3.0,3.0,54,0.00,,,0.00,vanprod,2013-02-01 13:05:00,
2013-02-01 08:15:00,26.7,10.0,29.63,WSW,246,4.0,4.0,49,0.00,,,0.00,vanprod,2013-02-01 13:15:00,
2013-02-01 08:25:00,27.0,10.0,29.63,WSW,254,3.0,3.0,48,0.00,,,0.00,vanprod,2013-02-01 13:25:00,
2013-02-01 08:35:00,27.3,10.0,29.64,SSW,208,3.0,4.0,48,0.00,,,0.00,vanprod,2013-02-01 13:35:00,
2013-02-01 08:45:00,27.6,9.0,29.65,West,265,4.0,4.0,45,0.00,,,0.00,vanprod,2013-02-01 13:45:00,
2013-02-01 08:55:00,27.9,10.0,29.65,WSW,251,4.0,4.0,47,0.00,,,0.00,vanprod,2013-02-01 13:55:00,
2013-02-01 09:05:00,28.2,9.0,29.66,SSW,205,4.0,4.0,45,0.00,,,0.00,vanprod,2013-02-01 14:05:00,
2013-02-01 09:15:00,28.4,10.0,29.66,WSW,256,5.0,5.0,46,0.00,,,0.00,vanprod,2013-02-01 14:15:00,
2013-02-01 09:25:00,28.5,9.0,29.66,WSW,248,5.0,5.0,43,0.00,,,0.00,vanprod,2013-02-01 14:25:00,
2013-02-01 09:35:00,28.8,9.0,29.67,West,268,6.0,8.0,43,0.00,,,0.00,vanprod,2013-02-01 14:35:00,
2013-02-01 09:45:00,28.8,9.0,29.68,West,263,5.0,5.0,44,0.00,,,0.00,vanprod,2013-02-01 14:45:00,
2013-02-01 09:55:00,29.4,9.0,29.68,WNW,296,5.0,6.0,43,0.00,,,0.00,vanprod,2013-02-01 14:55:00,
2013-02-01 10:05:00,29.7,8.0,29.68,WSW,258,5.0,5.0,39,0.00,,,0.00,vanprod,2013-02-01 15:05:00,
2013-02-01 10:15:00,30.4,10.0,29.68,SSW,203,5.0,5.0,43,0.00,,,0.00,vanprod,2013-02-01 15:15:00,
2013-02-01 10:25:00,30.9,9.0,29.68,WSW,247,5.0,5.0,39,0.00,,,0.00,vanprod,2013-02-01 15:25:00,
2013-02-01 10:35:00,30.6,8.0,29.69,SW,236,5.0,7.0,38,0.00,,,0.00,vanprod,2013-02-01 15:35:00,
2013-02-01 10:45:00,30.7,10.0,29.69,SSW,198,5.0,0.0,41,0.00,,,0.00,vanprod,2013-02-01 15:45:00,
2013-02-01 10:55:00,30.6,8.0,29.69,South,176,5.0,10.0,39,0.00,,,0.00,vanprod,2013-02-01 15:55:00,
2013-02-01 11:05:00,30.7,8.0,29.69,WSW,250,6.0,6.0,38,0.00,,,0.00,vanprod,2013-02-01 16:05:00,
2013-02-01 11:15:00,30.1,8.0,29.69,SW,234,6.0,6.0,40,0.00,,,0.00,vanprod,2013-02-01 16:15:00,
2013-02-01 11:25:00,30.7,9.0,29.69,WSW,247,4.0,6.0,40,0.00,,,0.00,vanprod,2013-02-01 16:25:00,
2013-02-01 11:35:00,30.6,7.0,29.69,WNW,299,7.0,7.0,36,0.00,,,0.00,vanprod,2013-02-01 16:35:00,
2013-02-01 11:45:00,30.1,7.0,29.69,WSW,239,6.0,6.0,37,0.00,,,0.00,vanprod,2013-02-01 16:45:00,
2013-02-01 11:55:00,30.4,8.0,29.69,WNW,294,5.0,5.0,39,0.00,,,0.00,vanprod,2013-02-01 16:55:00,
2013-02-01 12:05:00,30.7,7.0,29.67,West,281,5.0,5.0,37,0.00,,,0.00,vanprod,2013-02-01 17:05:00,
2013-02-01 12:15:00,30.9,9.0,29.67,NW,323,5.0,10.0,39,0.00,,,0.00,vanprod,2013-02-01 17:15:00,
2013-02-01 12:25:00,30.9,9.0,29.67,North,0,6.0,6.0,40,0.00,,,0.00,vanprod,2013-02-01 17:25:00,
2013-02-01 12:35:00,30.6,11.0,29.67,SW,229,4.0,4.0,43,0.00,,,0.00,vanprod,2013-02-01 17:35:00,
2013-02-01 12:45:00,30.7,8.0,29.67,WSW,253,5.0,5.0,39,0.00,,,0.00,vanprod,2013-02-01 17:45:00,
2013-02-01 12:55:00,30.9,8.0,29.67,NW,313,5.0,6.0,38,0.00,,,0.00,vanprod,2013-02-01 17:55:00,
2013-02-01 13:05:00,31.3,7.0,29.67,SSW,213,5.0,6.0,36,0.00,,,0.00,vanprod,2013-02-01 18:05:00,
2013-02-01 13:15:00,31.3,7.0,29.67,WSW,250,5.0,5.0,35,0.00,,,0.00,vanprod,2013-02-01 18:15:00,
2013-02-01 13:25:00,30.9,6.0,29.67,NE,35,5.0,5.0,35,0.00,,,0.00,vanprod,2013-02-01 18:25:00,
2013-02-01 13:35:00,31.0,6.0,29.65,WNW,299,5.0,6.0,35,0.00,,,0.00,vanprod,2013-02-01 18:35:00,
2013-02-01 13:45:00,31.0,8.0,29.65,NW,311,4.0,5.0,38,0.00,,,0.00,vanprod,2013-02-01 18:45:00,
2013-02-01 13:55:00,30.7,6.0,29.65,North,7,6.0,9.0,35,0.00,,,0.00,vanprod,2013-02-01 18:55:00,
2013-02-01 14:05:00,30.9,6.0,29.66,West,263,4.0,4.0,35,0.00,,,0.00,vanprod,2013-02-01 19:05:00,
2013-02-01 14:15:00,31.0,8.0,29.67,SW,229,4.0,4.0,37,0.00,,,0.00,vanprod,2013-02-01 19:15:00,
2013-02-01 14:25:00,30.9,9.0,29.67,WNW,287,3.0,5.0,39,0.00,,,0.00,vanprod,2013-02-01 19:25:00,
2013-02-01 14:35:00,30.1,8.0,29.68,WSW,244,4.0,4.0,39,0.00,,,0.00,vanprod,2013-02-01 19:35:00,
2013-02-01 14:45:00,29.5,7.0,29.68,NNW,335,3.0,4.0,39,0.00,,,0.00,vanprod,2013-02-01 19:45:00,
2013-02-01 14:55:00,29.7,8.0,29.68,NW,326,5.0,5.0,39,0.00,,,0.00,vanprod,2013-02-01 19:55:00,
2013-02-01 15:05:00,29.7,8.0,29.69,NW,325,4.0,4.0,39,0.00,,,0.00,vanprod,2013-02-01 20:05:00,
2013-02-01 15:15:00,29.5,7.0,29.70,West,281,4.0,5.0,38,0.00,,,0.00,vanprod,2013-02-01 20:15:00,
2013-02-01 15:25:00,29.3,7.0,29.70,NNW,336,4.0,4.0,38,0.00,,,0.00,vanprod,2013-02-01 20:25:00,
2013-02-01 15:35:00,29.1,6.0,29.70,WNW,291,4.0,4.0,38,0.00,,,0.00,vanprod,2013-02-01 20:35:00,
2013-02-01 15:45:00,29.0,7.0,29.71,SW,219,3.0,3.0,40,0.00,,,0.00,vanprod,2013-02-01 20:45:00,
2013-02-01 15:55:00,29.0,7.0,29.71,NW,311,2.0,5.0,40,0.00,,,0.00,vanprod,2013-02-01 20:55:00,
2013-02-01 16:05:00,29.0,8.0,29.72,NW,312,3.0,3.0,41,0.00,,,0.00,vanprod,2013-02-01 21:05:00,
2013-02-01 16:15:00,29.0,9.0,29.73,WNW,292,3.0,3.0,42,0.00,,,0.00,vanprod,2013-02-01 21:15:00,
2013-02-01 16:25:00,28.8,8.0,29.73,WSW,247,3.0,4.0,41,0.00,,,0.00,vanprod,2013-02-01 21:25:00,
2013-02-01 16:35:00,28.4,6.0,29.74,NW,308,4.0,4.0,39,0.00,,,0.00,vanprod,2013-02-01 21:35:00,
2013-02-01 16:45:00,27.9,7.0,29.75,West,272,4.0,4.0,41,0.00,,,0.00,vanprod,2013-02-01 21:45:00,
2013-02-01 16:55:00,27.8,8.0,29.75,WNW,295,2.0,5.0,43,0.00,,,0.00,vanprod,2013-02-01 21:55:00,
2013-02-01 17:05:00,27.5,7.0,29.76,WSW,239,3.0,3.0,41,0.00,,,0.00,vanprod,2013-02-01 22:05:00,
2013-02-01 17:15:00,27.2,9.0,29.78,NW,323,1.0,2.0,45,0.00,,,0.00,vanprod,2013-02-01 22:15:00,
2013-02-01 17:25:00,26.9,7.0,29.78,West,265,3.0,6.0,42,0.00,,,0.00,vanprod,2013-02-01 22:25:00,
2013-02-01 17:35:00,26.7,7.0,29.79,WSW,256,4.0,5.0,43,0.00,,,0.00,vanprod,2013-02-01 22:35:00,
2013-02-01 17:45:00,26.4,7.0,29.81,WNW,299,4.0,4.0,43,0.00,,,0.00,vanprod,2013-02-01 22:45:00,
2013-02-01 17:55:00,26.3,6.0,29.81,NW,308,4.0,4.0,42,0.00,,,0.00,vanprod,2013-02-01 22:55:00,
2013-02-01 18:05:00,26.0,6.0,29.82,NNW,335,3.0,3.0,43,0.00,,,0.00,vanprod,2013-02-01 23:05:00,
2013-02-01 18:15:00,25.7,6.0,29.84,NNW,328,4.0,9.0,43,0.00,,,0.00,vanprod,2013-02-01 23:15:00,
2013-02-01 18:25:00,25.4,7.0,29.84,WNW,299,3.0,3.0,46,0.00,,,0.00,vanprod,2013-02-01 23:25:00,
2013-02-01 18:35:00,25.1,7.0,29.86,WNW,298,3.0,3.0,46,0.00,,,0.00,vanprod,2013-02-01 23:35:00,
2013-02-01 18:45:00,24.8,7.0,29.87,NNW,330,3.0,12.0,46,0.00,,,0.00,vanprod,2013-02-01 23:45:00,
2013-02-01 18:55:00,24.5,7.0,29.87,WNW,292,3.0,0.0,46,0.00,,,0.00,vanprod,2013-02-01 23:55:00,
2013-02-01 19:05:00,24.2,7.0,29.88,WNW,284,3.0,3.0,47,0.00,,,0.00,vanprod,2013-02-02 00:05:00,
2013-02-01 19:15:00,24.1,7.0,29.89,NW,306,4.0,8.0,48,0.00,,,0.00,vanprod,2013-02-02 00:15:00,
2013-02-01 19:25:00,23.8,6.0,29.89,West,271,4.0,4.0,47,0.00,,,0.00,vanprod,2013-02-02 00:25:00,
2013-02-01 19:35:00,23.6,7.0,29.90,NW,305,3.0,5.0,48,0.00,,,0.00,vanprod,2013-02-02 00:35:00,
2013-02-01 19:45:00,23.5,7.0,29.90,West,264,3.0,3.0,49,0.00,,,0.00,vanprod,2013-02-02 00:45:00,
2013-02-01 19:55:00,23.3,7.0,29.90,West,277,1.0,2.0,50,0.00,,,0.00,vanprod,2013-02-02 00:55:00,
2013-02-01 20:05:00,23.0,7.0,29.91,WSW,257,2.0,0.0,49,0.00,,,0.00,vanprod,2013-02-02 01:05:00,
2013-02-01 20:15:00,22.9,8.0,29.92,WNW,299,1.0,0.0,52,0.00,,,0.00,vanprod,2013-02-02 01:15:00,
2013-02-01 20:25:00,22.5,7.0,29.92,WSW,253,1.0,1.0,51,0.00,,,0.00,vanprod,2013-02-02 01:25:00,
2013-02-01 20:35:00,22.4,8.0,29.93,WSW,239,1.0,0.0,54,0.00,,,0.00,vanprod,2013-02-02 01:35:00,
2013-02-01 20:45:00,22.2,8.0,29.93,WNW,301,1.0,0.0,53,0.00,,,0.00,vanprod,2013-02-02 01:45:00,
2013-02-01 20:55:00,22.1,8.0,29.93,West,278,2.0,2.0,53,0.00,,,0.00,vanprod,2013-02-02 01:55:00,
2013-02-01 21:05:00,22.1,8.0,29.93,NW,311,2.0,2.0,54,0.00,,,0.00,vanprod,2013-02-02 02:05:00,
2013-02-01 21:15:00,21.9,8.0,29.94,West,270,2.0,2.0,54,0.00,,,0.00,vanprod,2013-02-02 02:15:00,
2013-02-01 21:25:00,21.8,8.0,29.94,NW,326,1.0,0.0,54,0.00,,,0.00,vanprod,2013-02-02 02:25:00,
2013-02-01 21:35:00,21.6,7.0,29.94,WNW,302,0.0,1.0,54,0.00,,,0.00,vanprod,2013-02-02 02:35:00,
2013-02-01 21:45:00,21.4,8.0,29.94,WNW,302,1.0,2.0,56,0.00,,,0.00,vanprod,2013-02-02 02:45:00,
2013-02-01 21:55:00,21.3,8.0,29.94,NW,306,1.0,1.0,56,0.00,,,0.00,vanprod,2013-02-02 02:55:00,
2013-02-01 22:05:00,21.3,8.0,29.95,NW,320,1.0,2.0,57,0.00,,,0.00,vanprod,2013-02-02 03:05:00,
2013-02-01 22:15:00,21.1,8.0,29.95,West,271,1.0,1.0,57,0.00,,,0.00,vanprod,2013-02-02 03:15:00,
2013-02-01 22:25:00,20.8,8.0,29.95,West,270,0.0,0.0,58,0.00,,,0.00,vanprod,2013-02-02 03:25:00,
2013-02-01 22:35:00,20.6,8.0,29.95,North,349,0.0,0.0,58,0.00,,,0.00,vanprod,2013-02-02 03:35:00,
2013-02-01 22:45:00,20.5,8.0,29.96,NNW,340,0.0,1.0,59,0.00,,,0.00,vanprod,2013-02-02 03:45:00,
2013-02-01 22:55:00,20.3,8.0,29.96,NNW,340,1.0,1.0,58,0.00,,,0.00,vanprod,2013-02-02 03:55:00,
2013-02-01 23:05:00,20.2,8.0,29.96,WNW,302,1.0,2.0,59,0.00,,,0.00,vanprod,2013-02-02 04:05:00,
2013-02-01 23:15:00,20.0,7.0,29.98,North,4,2.0,7.0,57,0.00,,,0.00,vanprod,2013-02-02 04:15:00,
2013-02-01 23:25:00,19.9,7.0,29.98,NNW,332,2.0,4.0,57,0.00,,,0.00,vanprod,2013-02-02 04:25:00,
2013-02-01 23:35:00,19.7,7.0,29.98,North,1,1.0,3.0,57,0.00,,,0.00,vanprod,2013-02-02 04:35:00,
2013-02-01 23:45:00,19.4,6.0,29.99,NNW,337,2.0,0.0,56,0.00,,,0.00,vanprod,2013-02-02 04:45:00,
2013-02-01 23:55:00,19.2,7.0,29.99,NNW,337,0.0,2.0,58,0.00,,,0.00,vanprod,2013-02-02 04:55:00,